createdAt,value
2023-03-18T00:01:38.721Z,10.10
2023-03-18T00:04:27.180Z,10.30
2023-03-18T00:07:16.286Z,10.40
2023-03-18T00:10:07.918Z,10.60
2023-03-18T00:12:56.359Z,10.80
2023-03-18T00:15:44.817Z,10.90
2023-03-18T00:18:34.403Z,10.80
2023-03-18T00:21:23.409Z,10.30
2023-03-18T00:24:12.345Z,10.50
2023-03-18T00:27:02.185Z,10.70
2023-03-18T00:29:51.212Z,10.90
2023-03-18T00:32:39.952Z,10.80
2023-03-18T00:35:30.633Z,10.60
2023-03-18T00:38:21.669Z,10.40
2023-03-18T00:41:15.793Z,10.00
2023-03-18T00:44:06.185Z,9.70
2023-03-18T00:46:54.893Z,9.70
2023-03-18T00:49:43.426Z,9.10
2023-03-18T00:52:32.514Z,9.10
2023-03-18T00:55:21.045Z,8.80
2023-03-18T00:58:10.056Z,9.00
2023-03-18T01:00:59.987Z,9.10
2023-03-18T01:03:50.178Z,8.50
2023-03-18T01:06:40.089Z,8.50
2023-03-18T01:09:28.575Z,8.80
2023-03-18T01:12:17.742Z,8.80
2023-03-18T01:15:07.607Z,8.90
2023-03-18T01:17:58.490Z,8.50
2023-03-18T01:20:47.252Z,8.70
2023-03-18T01:23:36.006Z,8.80
2023-03-18T01:26:26.222Z,9.10
2023-03-18T01:29:14.770Z,9.20
2023-03-18T01:32:03.744Z,9.30
2023-03-18T01:34:53.585Z,9.30
2023-03-18T01:37:42.170Z,9.00
2023-03-18T01:40:32.292Z,9.10
2023-03-18T01:43:23.974Z,9.20
2023-03-18T01:46:33.485Z,9.50
2023-03-18T01:49:24.322Z,9.60
2023-03-18T01:52:18.231Z,9.60
2023-03-18T01:55:12.684Z,9.80
2023-03-18T01:58:04.512Z,10.10
2023-03-18T02:01:04.250Z,10.30
2023-03-18T02:03:53.457Z,10.40
2023-03-18T02:06:42.477Z,10.30
2023-03-18T02:09:32.720Z,10.30
2023-03-18T02:12:24.511Z,10.50
2023-03-18T02:15:16.514Z,10.50
2023-03-18T02:18:09.042Z,10.60
2023-03-18T02:21:11.819Z,10.70
2023-03-18T02:24:07.261Z,10.80
2023-03-18T02:27:01.046Z,10.80
2023-03-18T02:29:54.366Z,10.80
2023-03-18T02:32:44.068Z,10.70
2023-03-18T02:35:34.021Z,10.60
2023-03-18T02:38:22.964Z,11.60
2023-03-18T02:41:16.214Z,10.60
2023-03-18T02:44:05.391Z,10.70
2023-03-18T02:46:58.587Z,10.60
2023-03-18T02:49:47.031Z,10.60
2023-03-18T02:52:35.521Z,10.60
2023-03-18T02:55:24.044Z,10.50
2023-03-18T02:58:12.753Z,10.60
2023-03-18T03:01:01.430Z,10.60
2023-03-18T03:03:52.031Z,10.50
2023-03-18T03:06:41.249Z,10.50
2023-03-18T03:09:31.070Z,10.50
2023-03-18T03:12:19.817Z,10.50
2023-03-18T03:15:10.185Z,10.50
2023-03-18T03:17:59.253Z,10.60
2023-03-18T03:20:49.357Z,10.40
2023-03-18T03:23:38.440Z,10.40
2023-03-18T03:26:28.746Z,9.90
2023-03-18T03:29:17.240Z,10.30
2023-03-18T03:32:06.901Z,10.30
2023-03-18T03:34:55.357Z,10.30
2023-03-18T03:37:45.329Z,10.30
2023-03-18T03:40:34.161Z,10.30
2023-03-18T03:43:22.694Z,10.40
2023-03-18T03:46:11.648Z,10.40
2023-03-18T03:49:00.175Z,10.30
2023-03-18T03:51:48.912Z,10.20
2023-03-18T03:54:41.525Z,10.00
2023-03-18T03:57:30.014Z,10.00
2023-03-18T04:00:21.282Z,9.90
2023-03-18T04:03:09.756Z,9.80
2023-03-18T04:05:58.253Z,9.60
2023-03-18T04:08:46.952Z,9.40
2023-03-18T04:11:36.810Z,9.40
2023-03-18T04:14:25.327Z,9.40
2023-03-18T04:17:14.053Z,9.40
2023-03-18T04:20:03.419Z,9.40
2023-03-18T04:22:51.896Z,9.30
2023-03-18T04:25:40.411Z,9.30
2023-03-18T04:28:30.324Z,9.40
2023-03-18T04:31:18.920Z,9.30
2023-03-18T04:34:07.776Z,9.10
2023-03-18T04:39:45.217Z,8.70
2023-03-18T04:42:33.717Z,8.60
2023-03-18T04:45:24.935Z,8.70
2023-03-18T04:48:13.431Z,8.90
2023-03-18T04:51:02.288Z,8.20
2023-03-18T04:53:50.847Z,9.20
2023-03-18T04:56:40.634Z,9.30
2023-03-18T04:59:29.072Z,9.40
2023-03-18T05:02:19.506Z,9.50
2023-03-18T05:05:08.325Z,9.50
2023-03-18T05:07:56.887Z,9.40
2023-03-18T05:10:45.333Z,9.40
2023-03-18T05:13:34.111Z,9.30
2023-03-18T05:16:22.704Z,9.40
2023-03-18T05:19:13.026Z,9.50
2023-03-18T05:22:01.516Z,9.60
2023-03-18T05:24:50.705Z,9.60
2023-03-18T05:27:39.350Z,9.80
2023-03-18T05:30:28.200Z,9.80
2023-03-18T05:33:16.928Z,9.80
2023-03-18T05:36:07.720Z,9.70
2023-03-18T05:38:56.765Z,9.70
2023-03-18T05:41:45.205Z,9.50
2023-03-18T05:44:34.076Z,9.50
2023-03-18T05:47:22.689Z,9.50
2023-03-18T05:50:13.436Z,9.50
2023-03-18T05:53:04.440Z,9.20
2023-03-18T05:55:52.845Z,9.70
2023-03-18T05:58:41.289Z,9.60
2023-03-18T06:01:30.881Z,9.70
2023-03-18T06:04:20.288Z,9.60
2023-03-18T06:07:08.874Z,9.30
2023-03-18T06:09:58.775Z,9.20
2023-03-18T06:12:47.736Z,9.10
2023-03-18T06:15:36.195Z,8.90
2023-03-18T06:18:24.732Z,9.10
2023-03-18T06:21:13.271Z,9.20
2023-03-18T06:24:02.654Z,9.30
2023-03-18T06:26:52.856Z,9.50
2023-03-18T06:29:41.686Z,9.40
2023-03-18T06:32:30.436Z,9.40
2023-03-18T06:35:19.183Z,9.60
2023-03-18T06:38:08.777Z,9.70
2023-03-18T06:40:57.274Z,9.60
2023-03-18T06:43:50.559Z,9.60
2023-03-18T06:46:39.181Z,9.70
2023-03-18T06:49:27.783Z,10.10
2023-03-18T06:52:17.277Z,9.40
2023-03-18T06:55:07.620Z,9.30
2023-03-18T06:57:56.503Z,9.70
2023-03-18T07:00:47.838Z,9.80
2023-03-18T07:03:36.718Z,10.10
2023-03-18T07:06:25.203Z,10.30
2023-03-18T07:09:15.270Z,10.40
2023-03-18T07:12:03.800Z,10.30
2023-03-18T07:14:53.541Z,10.40
2023-03-18T07:17:43.525Z,10.60
2023-03-18T07:20:32.902Z,10.70
2023-03-18T07:23:21.951Z,10.50
2023-03-18T07:26:12.464Z,10.20
2023-03-18T07:29:00.882Z,10.20
2023-03-18T07:31:50.043Z,10.30
2023-03-18T07:34:39.840Z,10.60
2023-03-18T07:37:28.801Z,10.70
2023-03-18T07:40:17.527Z,10.80
2023-03-18T07:43:06.660Z,10.80
2023-03-18T07:45:55.745Z,10.90
2023-03-18T07:48:44.166Z,10.80
2023-03-18T07:51:34.206Z,10.70
2023-03-18T07:54:23.977Z,11.00
2023-03-18T07:57:12.982Z,11.20
2023-03-18T08:00:01.698Z,11.30
2023-03-18T08:02:50.356Z,11.60
2023-03-18T08:05:38.953Z,11.80
2023-03-18T08:08:29.002Z,11.70
2023-03-18T08:11:17.533Z,11.30
2023-03-18T08:14:05.975Z,11.40
2023-03-18T08:16:54.572Z,11.70
2023-03-18T08:19:43.072Z,11.90
2023-03-18T08:22:31.644Z,12.00
2023-03-18T08:25:22.973Z,12.00
2023-03-18T08:28:11.768Z,11.40
2023-03-18T08:31:00.439Z,11.70
2023-03-18T08:33:49.582Z,11.70
2023-03-18T08:36:38.197Z,12.00
2023-03-18T08:39:27.071Z,12.30
2023-03-18T08:42:17.579Z,12.50
2023-03-18T08:45:06.907Z,12.80
2023-03-18T08:47:55.670Z,13.10
2023-03-18T08:50:44.156Z,13.00
2023-03-18T08:53:32.617Z,13.00
2023-03-18T08:56:21.146Z,13.10
2023-03-18T08:59:11.249Z,13.30
2023-03-18T09:02:00.007Z,13.50
2023-03-18T09:04:49.442Z,13.70
2023-03-18T09:07:37.911Z,13.90
2023-03-18T09:10:27.075Z,14.00
2023-03-18T09:13:16.039Z,14.20
2023-03-18T09:16:07.312Z,14.40
2023-03-18T09:18:55.793Z,14.50
2023-03-18T09:21:44.551Z,14.60
2023-03-18T09:24:33.162Z,14.70
2023-03-18T09:27:21.806Z,14.70
2023-03-18T09:30:11.607Z,14.60
2023-03-18T09:33:01.712Z,14.70
2023-03-18T09:35:50.881Z,14.70
2023-03-18T09:38:39.401Z,14.70
2023-03-18T09:41:38.607Z,14.80
2023-03-18T09:44:31.739Z,14.90
2023-03-18T09:47:36.306Z,14.90
2023-03-18T09:50:40.445Z,15.00
2023-03-18T09:53:44.550Z,15.10
2023-03-18T09:56:36.925Z,15.30
2023-03-18T09:59:39.437Z,15.30
2023-03-18T10:02:35.010Z,15.30
2023-03-18T10:05:32.745Z,15.30
2023-03-18T10:08:35.149Z,15.50
2023-03-18T10:11:31.533Z,15.60
2023-03-18T10:14:30.102Z,15.80
2023-03-18T10:17:22.781Z,15.90
2023-03-18T10:20:19.069Z,16.10
2023-03-18T10:23:20.583Z,16.30
2023-03-18T10:26:17.517Z,16.30
2023-03-18T10:29:30.438Z,16.50
2023-03-18T10:32:46.492Z,16.50
2023-03-18T10:35:45.145Z,16.50
2023-03-18T10:38:37.660Z,16.60
2023-03-18T11:01:31.473Z,17.80
2023-03-18T11:04:23.309Z,18.10
2023-03-18T11:07:18.837Z,18.20
2023-03-18T11:15:58.722Z,19.00
2023-03-18T11:18:48.940Z,19.10
2023-03-18T11:21:39.076Z,19.20
2023-03-18T11:24:38.841Z,19.30
2023-03-18T11:27:34.348Z,19.30
2023-03-18T11:30:34.111Z,19.40
2023-03-18T11:33:26.554Z,19.70
2023-03-18T11:36:19.577Z,20.00
2023-03-18T11:41:58.904Z,20.60
2023-03-18T11:44:47.740Z,20.80
2023-03-18T11:47:39.147Z,20.80
2023-03-18T11:53:29.164Z,20.90
2023-03-18T11:56:25.046Z,21.00
2023-03-18T11:59:31.833Z,21.10
2023-03-18T12:02:36.702Z,21.10
2023-03-18T12:06:00.081Z,21.10
2023-03-18T12:09:03.248Z,21.10
2023-03-18T12:12:17.904Z,21.30
2023-03-18T12:15:15.053Z,21.40
2023-03-18T12:18:18.154Z,21.40
2023-03-18T12:21:24.418Z,21.50
2023-03-18T12:24:49.787Z,21.50
2023-03-18T12:27:46.442Z,21.40
2023-03-18T12:30:53.608Z,21.40
2023-03-18T12:33:55.202Z,21.30
2023-03-18T12:36:59.132Z,21.20
2023-03-18T12:40:13.605Z,21.30
2023-03-18T12:43:22.050Z,21.40
2023-03-18T12:46:21.807Z,21.60
2023-03-18T13:12:14.644Z,21.50
2023-03-18T13:15:12.660Z,21.40
2023-03-18T13:18:12.972Z,21.20
2023-03-18T13:21:02.996Z,21.30
2023-03-18T13:27:09.342Z,20.80
2023-03-18T13:30:06.234Z,20.90
2023-03-18T13:33:10.387Z,21.10
2023-03-18T13:36:28.654Z,21.10
2023-03-18T13:39:26.052Z,21.40
2023-03-18T13:42:23.153Z,21.60
2023-03-18T13:48:08.874Z,22.20
2023-03-18T13:50:59.870Z,22.30
2023-03-18T13:53:50.630Z,22.40
2023-03-18T13:56:50.061Z,22.50
2023-03-18T13:59:48.836Z,22.50
2023-03-18T14:02:45.825Z,22.30
2023-03-18T14:05:41.039Z,22.30
2023-03-18T14:08:48.293Z,22.50
2023-03-18T14:11:48.064Z,22.50
2023-03-18T14:14:58.900Z,22.60
2023-03-18T14:17:49.540Z,22.50
2023-03-18T14:20:40.524Z,22.60
2023-03-18T14:23:36.780Z,22.30
2023-03-18T14:26:27.512Z,21.70
2023-03-18T14:29:25.421Z,22.30
2023-03-18T14:32:38.125Z,22.30
2023-03-18T14:35:29.355Z,22.20
2023-03-18T14:38:21.596Z,22.00
2023-03-18T14:41:22.458Z,21.80
2023-03-18T14:44:23.569Z,21.80
2023-03-18T14:47:35.569Z,21.70
2023-03-18T14:50:42.801Z,23.30
2023-03-18T14:56:25.172Z,21.70
2023-03-18T14:59:17.458Z,21.70
2023-03-18T15:02:10.597Z,21.60
2023-03-18T15:13:30.141Z,21.40
2023-03-18T15:16:20.805Z,21.30
2023-03-18T15:19:13.000Z,21.30
2023-03-18T15:22:04.599Z,21.20
2023-03-18T15:24:58.876Z,20.90
2023-03-18T15:27:48.228Z,20.60
2023-03-18T15:30:37.770Z,20.30
2023-03-18T15:33:31.327Z,20.00
2023-03-18T15:36:21.941Z,19.70
2023-03-18T15:39:29.734Z,19.60
2023-03-18T15:42:21.610Z,19.40
2023-03-18T15:45:18.133Z,19.40
2023-03-18T15:48:09.104Z,19.40
2023-03-18T15:51:00.024Z,19.40
2023-03-18T15:53:53.757Z,19.30
2023-03-18T15:56:47.577Z,19.30
2023-03-18T15:59:37.433Z,19.20
2023-03-18T16:02:26.491Z,19.10
2023-03-18T16:05:19.416Z,19.00
2023-03-18T16:08:14.073Z,19.00
2023-03-18T16:11:05.877Z,19.00
2023-03-18T16:13:54.979Z,18.90
2023-03-18T16:16:45.096Z,18.90
2023-03-18T16:19:33.983Z,18.90
2023-03-18T16:22:22.441Z,18.90
2023-03-18T16:25:11.992Z,18.70
2023-03-18T16:28:01.188Z,18.70
2023-03-18T16:30:52.182Z,18.60
2023-03-18T16:33:42.725Z,18.60
2023-03-18T16:36:35.093Z,18.50
2023-03-18T16:39:25.465Z,18.40
2023-03-18T16:42:14.045Z,18.30
2023-03-18T16:45:02.508Z,18.30
2023-03-18T16:47:52.685Z,17.00
2023-03-18T16:50:43.651Z,18.20
2023-03-18T16:53:33.279Z,18.10
2023-03-18T16:56:23.836Z,18.00
2023-03-18T16:59:15.827Z,17.90
2023-03-18T17:02:05.153Z,17.90
2023-03-18T17:04:53.607Z,17.80
2023-03-18T17:07:43.519Z,17.70
2023-03-18T17:10:32.441Z,17.60
2023-03-18T17:13:24.288Z,17.60
2023-03-18T17:16:19.005Z,17.60
2023-03-18T17:19:10.798Z,17.50
2023-03-18T17:21:59.480Z,17.40
2023-03-18T17:24:49.747Z,17.40
2023-03-18T17:27:44.188Z,17.40
2023-03-18T17:30:34.976Z,17.30
2023-03-18T17:33:27.149Z,17.20
2023-03-18T17:36:15.626Z,17.20
2023-03-18T17:39:04.266Z,17.20
2023-03-18T17:41:54.521Z,17.20
2023-03-18T17:44:43.042Z,17.10
2023-03-18T17:47:31.724Z,17.00
2023-03-18T17:50:23.174Z,16.90
2023-03-18T17:53:24.167Z,16.90
2023-03-18T17:56:15.823Z,16.80
2023-03-18T17:59:13.687Z,16.80
2023-03-18T18:02:02.164Z,16.80
2023-03-18T18:04:50.809Z,16.70
2023-03-18T18:07:39.341Z,16.70
2023-03-18T18:10:27.859Z,16.60
2023-03-18T18:13:17.793Z,16.60
2023-03-18T18:16:07.898Z,16.60
2023-03-18T18:18:56.347Z,16.60
2023-03-18T18:21:46.228Z,16.50
2023-03-18T18:24:35.755Z,16.50
2023-03-18T18:27:24.422Z,16.50
2023-03-18T18:30:16.491Z,16.40
2023-03-18T18:33:06.455Z,16.40
2023-03-18T18:35:55.612Z,16.40
2023-03-18T18:38:44.362Z,16.30
2023-03-18T18:41:33.252Z,16.30
2023-03-18T18:44:22.260Z,16.20
2023-03-18T18:47:18.903Z,16.30
2023-03-18T18:50:17.140Z,16.20
2023-03-18T18:53:24.371Z,16.20
2023-03-18T18:56:16.241Z,16.10
2023-03-18T18:59:17.367Z,16.10
2023-03-18T19:02:21.975Z,16.10
2023-03-18T19:05:11.939Z,16.00
2023-03-18T19:08:02.056Z,16.00
2023-03-18T19:10:52.861Z,16.00
2023-03-18T19:13:42.051Z,15.90
2023-03-18T19:16:34.513Z,15.90
2023-03-18T19:19:26.394Z,15.80
2023-03-18T19:22:17.641Z,15.80
2023-03-18T19:25:06.560Z,16.00
2023-03-18T19:27:55.705Z,16.00
2023-03-18T19:30:34.717Z,15.80
2023-03-18T19:33:26.884Z,15.70
2023-03-18T19:36:23.184Z,15.70
2023-03-18T19:39:16.521Z,15.70
2023-03-18T19:42:05.490Z,15.60
2023-03-18T19:44:54.027Z,15.70
2023-03-18T19:47:43.011Z,15.60
2023-03-18T19:50:31.670Z,15.50
2023-03-18T19:53:20.758Z,15.50
2023-03-18T19:56:23.957Z,15.50
2023-03-18T19:59:20.972Z,15.40
2023-03-18T20:02:21.932Z,15.40
2023-03-18T20:05:17.861Z,15.30
2023-03-18T20:08:06.624Z,15.30
2023-03-18T20:10:55.368Z,15.40
2023-03-18T20:13:45.780Z,15.40
2023-03-18T20:16:34.404Z,15.40
2023-03-18T20:19:22.920Z,15.40
2023-03-18T20:22:21.535Z,15.40
2023-03-18T20:25:18.665Z,15.40
2023-03-18T20:28:08.844Z,15.40
2023-03-18T20:30:59.741Z,15.40
2023-03-18T20:33:48.262Z,15.50
2023-03-18T20:36:36.817Z,15.40
2023-03-18T20:39:26.451Z,15.30
2023-03-18T20:42:17.382Z,15.20
2023-03-18T20:45:07.638Z,15.20
2023-03-18T20:47:57.897Z,15.20
2023-03-18T20:50:46.721Z,15.20
2023-03-18T20:53:35.200Z,15.20
2023-03-18T20:56:23.824Z,15.20
2023-03-18T20:59:12.524Z,15.10
2023-03-18T21:02:01.235Z,15.00
2023-03-18T21:04:51.237Z,14.90
2023-03-18T21:07:39.716Z,14.90
2023-03-18T21:10:28.809Z,15.00
2023-03-18T21:13:20.010Z,15.00
2023-03-18T21:16:14.410Z,15.00
2023-03-18T21:19:04.116Z,15.00
2023-03-18T21:21:53.964Z,15.00
2023-03-18T21:24:42.528Z,15.00
2023-03-18T21:27:31.077Z,15.00
2023-03-18T21:30:22.042Z,15.00
2023-03-18T21:33:20.556Z,13.80
2023-03-18T21:36:12.220Z,14.90
2023-03-18T21:39:02.004Z,14.90
2023-03-18T21:41:50.462Z,14.90
2023-03-18T21:44:38.932Z,14.80
2023-03-18T21:47:28.039Z,14.80
2023-03-18T21:50:21.480Z,14.80
2023-03-18T21:53:13.097Z,14.80
2023-03-18T21:56:03.044Z,14.80
2023-03-18T21:58:51.507Z,14.80
2023-03-18T22:01:40.109Z,14.60
2023-03-18T22:04:28.617Z,14.30
2023-03-18T22:07:17.584Z,14.40
2023-03-18T22:10:07.157Z,14.50
2023-03-18T22:12:56.975Z,14.30
2023-03-18T22:15:46.702Z,14.20
2023-03-18T22:18:35.232Z,14.20
2023-03-18T22:21:27.519Z,14.20
2023-03-18T22:24:16.075Z,14.10
2023-03-18T22:27:04.719Z,14.20
2023-03-18T22:29:56.501Z,14.30
2023-03-18T22:32:47.796Z,14.40
2023-03-18T22:35:36.767Z,14.40
2023-03-18T22:38:26.116Z,14.50
2023-03-18T22:41:20.839Z,14.50
2023-03-18T22:44:16.154Z,14.50
2023-03-18T22:47:06.463Z,14.40
2023-03-18T22:49:54.922Z,14.30
2023-03-18T22:52:43.480Z,14.30
2023-03-18T22:55:36.606Z,14.40
2023-03-18T22:58:27.551Z,14.30
2023-03-18T23:01:18.679Z,14.40
2023-03-18T23:04:12.173Z,14.30
2023-03-18T23:07:00.766Z,14.30
2023-03-18T23:09:56.466Z,14.30
2023-03-18T23:12:45.294Z,14.30
2023-03-18T23:15:33.984Z,14.20
2023-03-18T23:18:23.612Z,14.20
2023-03-18T23:21:16.904Z,14.30
2023-03-18T23:24:05.993Z,14.20
2023-03-18T23:26:54.388Z,14.20
2023-03-18T23:29:43.461Z,14.20
2023-03-18T23:32:32.134Z,14.20
2023-03-18T23:35:20.844Z,14.10
2023-03-18T23:38:10.994Z,14.10
2023-03-18T23:40:59.493Z,14.00
2023-03-18T23:43:47.983Z,14.00
2023-03-18T23:46:36.509Z,14.00
2023-03-18T23:49:25.060Z,14.00
2023-03-18T23:52:15.577Z,14.00
2023-03-18T23:55:18.350Z,14.00
2023-03-18T23:58:14.962Z,14.00
